Time;durP1;ratioP1;P1;durP2;ratioP2;P2;SDS_P1;SDS_P2;PMS_P1;PMS_P2;Temp;Humidity;BMP_temperature;BMP_pressure;BME280_temperature;BME280_humidity;BME280_pressure;Samples;Min_cycle;Max_cycle;Signal;HPM_P1;HPM_P2
2022/05/10 00:00:16;;;;;;;3.07;1.70;;;12.10;46.70;;;;;;4974672;28;20229;-71
2022/05/10 00:02:46;;;;;;;2.17;1.90;;;12.10;46.90;;;;;;4980415;28;20209;-70
2022/05/10 00:05:13;;;;;;;2.33;1.60;;;12.10;47.00;;;;;;4974788;28;20251;-71
2022/05/10 00:07:40;;;;;;;2.47;1.70;;;12.10;47.10;;;;;;4980645;28;20292;-70
2022/05/10 00:10:10;;;;;;;2.97;1.70;;;12.10;46.90;;;;;;4979553;28;20196;-70
2022/05/10 00:12:37;;;;;;;2.00;1.43;;;12.10;47.00;;;;;;4993493;28;20213;-70
2022/05/10 00:15:07;;;;;;;4.13;1.80;;;12.10;46.90;;;;;;4977554;28;20209;-71
2022/05/10 00:17:37;;;;;;;4.23;2.00;;;12.00;47.10;;;;;;4979203;28;20685;-70
2022/05/10 00:20:07;;;;;;;3.37;1.83;;;12.00;47.40;;;;;;4978927;28;20650;-70
2022/05/10 00:22:37;;;;;;;4.03;1.83;;;12.00;47.60;;;;;;4979539;28;20251;-71
2022/05/10 00:25:13;;;;;;;4.60;2.00;;;12.00;47.80;;;;;;4979348;28;20213;-72
2022/05/10 00:27:40;;;;;;;2.57;1.70;;;12.00;47.80;;;;;;4980497;28;20275;-71
2022/05/10 00:30:09;;;;;;;2.63;1.60;;;12.60;48.20;;;;;;4978109;28;20336;-71
2022/05/10 00:32:38;;;;;;;3.90;1.90;;;12.00;47.70;;;;;;4974541;28;20213;-71
2022/05/10 00:35:08;;;;;;;4.13;1.80;;;11.90;47.50;;;;;;4979249;28;20239;-71
2022/05/10 00:37:35;;;;;;;4.30;2.03;;;11.90;47.60;;;;;;4980363;28;20713;-71
2022/05/10 00:40:01;;;;;;;4.90;1.77;;;11.90;47.60;;;;;;4979718;28;20228;-70
2022/05/10 00:42:34;;;;;;;4.10;1.80;;;11.90;47.60;;;;;;4979576;28;20243;-70
2022/05/10 00:45:04;;;;;;;5.03;1.97;;;11.90;47.60;;;;;;4979704;28;20295;-71
2022/05/10 00:47:39;;;;;;;6.20;2.33;;;11.90;47.60;;;;;;4983250;28;20205;-71
2022/05/10 00:50:12;;;;;;;2.53;1.57;;;12.00;47.40;;;;;;4979485;28;20656;-71
2022/05/10 00:52:46;;;;;;;2.50;1.87;;;12.00;47.30;;;;;;4977273;28;20219;-71
2022/05/10 00:55:19;;;;;;;3.53;1.50;;;12.00;47.30;;;;;;4977944;28;20207;-71
2022/05/10 00:57:50;;;;;;;5.03;2.00;;;12.00;47.30;;;;;;4978500;28;20214;-71
2022/05/10 01:00:20;;;;;;;3.60;1.77;;;12.00;47.10;;;;;;4978963;28;20307;-72
2022/05/10 01:02:58;;;;;;;2.10;1.40;;;12.00;47.10;;;;;;4969545;28;20657;-72
2022/05/10 01:05:31;;;;;;;3.63;1.80;;;12.00;47.00;;;;;;4972955;28;20209;-72
2022/05/10 01:08:02;;;;;;;3.40;1.90;;;12.00;47.10;;;;;;4977663;28;20296;-73
2022/05/10 01:10:38;;;;;;;3.20;1.60;;;11.90;47.00;;;;;;4977265;28;20280;-72
2022/05/10 01:13:13;;;;;;;5.93;1.57;;;12.00;47.10;;;;;;4977287;28;20239;-72
2022/05/10 01:15:43;;;;;;;3.23;1.77;;;12.00;47.80;;;;;;4976968;28;20247;-73
2022/05/10 01:18:12;;;;;;;3.43;1.70;;;12.00;47.10;;;;;;4977331;28;20227;-72
2022/05/10 01:20:43;;;;;;;4.27;1.50;;;11.90;47.60;;;;;;4978601;28;20360;-73
2022/05/10 01:23:45;;;;;;;2.37;1.50;;;12.00;47.10;;;;;;4978145;28;20209;-71
2022/05/10 01:26:19;;;;;;;3.50;2.00;;;12.00;47.20;;;;;;4965804;28;20208;-72
2022/05/10 01:28:51;;;;;;;2.43;1.80;;;11.90;47.10;;;;;;4976982;28;20239;-72
2022/05/10 01:31:25;;;;;;;3.33;2.10;;;11.90;47.10;;;;;;4978850;28;20200;-72
2022/05/10 01:33:55;;;;;;;2.43;1.70;;;11.90;47.20;;;;;;4977242;28;20246;-72
2022/05/10 01:36:29;;;;;;;3.40;1.77;;;11.80;47.20;;;;;;4978566;28;20193;-71
2022/05/10 01:39:01;;;;;;;5.03;1.63;;;11.80;47.30;;;;;;4977959;28;20230;-71
2022/05/10 01:41:41;;;;;;;6.23;1.80;;;11.80;47.40;;;;;;4977130;28;20250;-72
2022/05/10 01:44:18;;;;;;;2.10;1.67;;;11.80;47.40;;;;;;4977277;28;20205;-72
2022/05/10 01:46:47;;;;;;;1.87;1.60;;;11.80;47.50;;;;;;4977070;28;20295;-73
2022/05/10 01:49:23;;;;;;;3.40;1.83;;;11.70;47.30;;;;;;4975713;28;20200;-73
2022/05/10 01:51:56;;;;;;;4.17;2.03;;;11.70;47.40;;;;;;4976342;28;20204;-72
2022/05/10 01:54:55;;;;;;;3.30;2.00;;;11.60;47.70;;;;;;4977532;28;20207;-72
2022/05/10 01:57:23;;;;;;;4.33;2.30;;;11.60;47.90;;;;;;4972036;28;20308;-72
2022/05/10 01:59:56;;;;;;;3.23;1.90;;;11.50;48.00;;;;;;4977937;28;20263;-73
2022/05/10 02:02:27;;;;;;;3.53;1.80;;;11.50;48.30;;;;;;4979456;28;20295;-72
2022/05/10 02:04:58;;;;;;;2.40;1.87;;;11.40;48.40;;;;;;4978299;28;20311;-71
2022/05/10 02:07:27;;;;;;;3.63;2.20;;;11.40;48.60;;;;;;4976849;28;20239;-72
2022/05/10 02:10:00;;;;;;;2.80;2.10;;;11.40;48.90;;;;;;4979391;28;20204;-73
2022/05/10 02:12:34;;;;;;;3.40;2.23;;;11.30;49.00;;;;;;4978117;28;20208;-72
2022/05/10 02:15:08;;;;;;;4.07;2.40;;;11.30;49.10;;;;;;4977561;28;20216;-72
2022/05/10 02:17:40;;;;;;;3.80;2.10;;;11.20;49.20;;;;;;4975424;28;20208;-73
2022/05/10 02:20:13;;;;;;;4.10;2.47;;;11.20;49.30;;;;;;4977653;28;20212;-72
2022/05/10 02:22:44;;;;;;;4.23;2.43;;;11.70;49.80;;;;;;4977995;28;20342;-72
2022/05/10 02:25:14;;;;;;;3.40;2.50;;;11.10;49.60;;;;;;4978194;28;20208;-72
2022/05/10 02:27:47;;;;;;;4.47;2.33;;;11.10;49.70;;;;;;4974413;28;20204;-72
2022/05/10 02:30:18;;;;;;;3.70;2.50;;;11.00;49.80;;;;;;4977793;28;20244;-73
2022/05/10 02:35:33;;;;;;;3.93;2.37;;;10.90;50.10;;;;;;4978015;28;20203;-71
2022/05/10 02:38:01;;;;;;;4.07;2.63;;;10.80;50.10;;;;;;4976162;28;20205;-73
2022/05/10 02:40:28;;;;;;;4.07;2.80;;;10.80;50.20;;;;;;4963662;28;20319;-72
2022/05/10 02:42:55;;;;;;;3.80;2.00;;;10.70;50.30;;;;;;4977873;28;20216;-72
2022/05/10 02:45:24;;;;;;;4.33;2.43;;;10.80;50.60;;;;;;4980650;28;20732;-72
2022/05/10 02:47:51;;;;;;;3.10;2.50;;;10.70;50.60;;;;;;4979182;28;20303;-72
2022/05/10 02:50:23;;;;;;;4.73;2.40;;;10.70;50.70;;;;;;4979821;28;20215;-72
2022/05/10 02:52:50;;;;;;;5.70;2.53;;;10.70;50.90;;;;;;4981614;28;20300;-72
2022/05/10 02:55:20;;;;;;;5.20;2.60;;;10.70;50.90;;;;;;4978925;28;20224;-72
2022/05/10 02:57:49;;;;;;;3.23;2.87;;;10.70;51.00;;;;;;4979415;28;20213;-72
2022/05/10 03:00:17;;;;;;;4.47;2.77;;;10.60;51.00;;;;;;4979071;28;20229;-73
2022/05/10 03:02:50;;;;;;;5.80;2.70;;;10.60;51.10;;;;;;4979754;28;20209;-72
2022/05/10 03:05:17;;;;;;;3.80;2.27;;;10.60;51.30;;;;;;4978086;28;20551;-72
2022/05/10 03:07:44;;;;;;;6.43;3.10;;;10.50;51.30;;;;;;4977749;28;20399;-71
2022/05/10 03:10:11;;;;;;;7.23;2.63;;;10.50;51.40;;;;;;4979820;28;20365;-71
2022/05/10 03:12:38;;;;;;;4.27;2.77;;;10.50;51.70;;;;;;4980126;28;20240;-73
2022/05/10 03:15:06;;;;;;;9.53;2.90;;;10.50;51.80;;;;;;4979475;28;20205;-71
2022/05/10 03:17:34;;;;;;;5.87;3.40;;;10.50;52.00;;;;;;4976402;28;20308;-71
2022/05/10 03:20:03;;;;;;;5.43;2.73;;;10.50;52.10;;;;;;4980184;28;20228;-73
2022/05/10 03:22:30;;;;;;;8.10;3.57;;;10.50;52.30;;;;;;4980242;28;20224;-73
2022/05/10 03:24:57;;;;;;;5.90;3.50;;;10.50;52.50;;;;;;4979430;28;20213;-72
2022/05/10 03:27:24;;;;;;;5.27;2.83;;;10.50;52.70;;;;;;4977915;28;20239;-73
2022/05/10 03:29:51;;;;;;;3.67;2.77;;;10.50;52.70;;;;;;4979011;28;20300;-73
2022/05/10 03:32:18;;;;;;;4.10;2.60;;;10.50;52.70;;;;;;4979575;28;20216;-72
2022/05/10 03:34:58;;;;;;;6.37;3.33;;;10.60;52.50;;;;;;4979114;28;20625;-73
2022/05/10 03:37:28;;;;;;;3.70;2.50;;;10.60;52.50;;;;;;4978384;28;20208;-71
2022/05/10 03:39:55;;;;;;;5.83;3.13;;;10.60;52.40;;;;;;4978175;28;20299;-72
2022/05/10 03:42:23;;;;;;;4.27;2.97;;;10.70;53.10;;;;;;4978598;28;20240;-73
2022/05/10 03:44:52;;;;;;;4.23;2.83;;;10.70;52.60;;;;;;4978770;28;20212;-71
2022/05/10 03:47:20;;;;;;;5.10;3.00;;;10.70;52.50;;;;;;4978494;28;20212;-71
2022/05/10 03:49:47;;;;;;;5.23;3.30;;;10.70;52.50;;;;;;4979252;28;20239;-72
2022/05/10 03:52:15;;;;;;;5.13;2.90;;;10.70;52.40;;;;;;4977753;28;20247;-72
2022/05/10 03:54:44;;;;;;;4.57;2.60;;;10.80;52.50;;;;;;4977430;28;20580;-72
2022/05/10 03:57:11;;;;;;;5.20;3.13;;;10.90;52.50;;;;;;4977958;28;20251;-72
2022/05/10 03:59:41;;;;;;;4.30;2.67;;;11.00;52.40;;;;;;4979033;28;20243;-73
2022/05/10 04:02:10;;;;;;;3.77;2.80;;;11.00;52.30;;;;;;4979369;28;20613;-73
2022/05/10 04:04:38;;;;;;;5.93;3.00;;;11.20;52.50;;;;;;4979065;28;20283;-73
2022/05/10 04:07:05;;;;;;;5.93;3.30;;;11.00;52.30;;;;;;4977561;28;20240;-73
2022/05/10 04:09:32;;;;;;;4.37;2.80;;;11.10;52.40;;;;;;4978507;28;20304;-72
2022/05/10 04:12:00;;;;;;;7.33;3.30;;;11.10;52.40;;;;;;4978808;28;20267;-73
2022/05/10 04:14:27;;;;;;;5.40;3.03;;;11.20;52.40;;;;;;4978924;28;20549;-72
2022/05/10 04:16:54;;;;;;;8.33;2.47;;;11.20;52.30;;;;;;4977943;28;20218;-72
2022/05/10 04:19:21;;;;;;;5.23;3.00;;;11.30;52.00;;;;;;4978976;28;20334;-72
2022/05/10 04:21:49;;;;;;;5.00;2.47;;;11.40;51.70;;;;;;4975907;28;20312;-73
2022/05/10 04:24:16;;;;;;;3.70;2.53;;;11.40;50.80;;;;;;4976897;28;20593;-74
2022/05/10 04:26:43;;;;;;;3.83;2.20;;;11.50;50.60;;;;;;4976945;28;20258;-71
2022/05/10 04:29:11;;;;;;;3.63;2.40;;;11.60;50.00;;;;;;4976320;28;20315;-72
2022/05/10 04:31:38;;;;;;;3.67;2.27;;;11.70;49.50;;;;;;4977729;28;20232;-71
2022/05/10 04:34:05;;;;;;;4.13;2.20;;;11.70;49.00;;;;;;4976671;28;20220;-72
2022/05/10 04:36:32;;;;;;;3.73;2.13;;;11.70;48.90;;;;;;4978678;28;20213;-72
2022/05/10 04:38:59;;;;;;;5.90;2.50;;;11.70;48.80;;;;;;4975686;28;20239;-73
2022/05/10 04:41:27;;;;;;;5.10;2.30;;;11.80;48.40;;;;;;4978074;28;20264;-72
2022/05/10 04:43:55;;;;;;;4.57;1.87;;;11.80;48.10;;;;;;4978722;28;20220;-73
2022/05/10 04:46:24;;;;;;;6.10;2.43;;;11.80;48.30;;;;;;4977355;28;20263;-72
2022/05/10 04:48:51;;;;;;;2.47;2.10;;;11.80;48.20;;;;;;4982338;28;20204;-74
2022/05/10 04:51:17;;;;;;;4.10;2.47;;;11.90;48.20;;;;;;4985660;28;20212;-72
2022/05/10 04:53:45;;;;;;;6.00;2.47;;;11.90;48.30;;;;;;4976659;28;20213;-72
2022/05/10 04:56:12;;;;;;;5.87;2.03;;;11.90;48.40;;;;;;4974857;28;20267;-73
2022/05/10 04:58:39;;;;;;;4.47;2.10;;;12.00;48.20;;;;;;4977456;28;20216;-72
2022/05/10 05:01:08;;;;;;;3.27;2.37;;;12.00;48.20;;;;;;4977924;28;20224;-73
2022/05/10 05:03:37;;;;;;;4.53;2.57;;;12.10;48.20;;;;;;4978567;28;20224;-74
2022/05/10 05:06:04;;;;;;;3.73;2.10;;;12.10;48.20;;;;;;4978555;28;20213;-73
2022/05/10 05:08:31;;;;;;;6.90;2.63;;;12.10;48.30;;;;;;4976373;28;20658;-72
2022/05/10 05:10:58;;;;;;;3.53;2.27;;;12.20;48.40;;;;;;4985258;28;20209;-73
2022/05/10 05:13:25;;;;;;;3.17;1.90;;;12.20;48.60;;;;;;4985139;28;20228;-72
2022/05/10 05:15:52;;;;;;;4.33;2.30;;;12.30;48.40;;;;;;4975690;28;20738;-73
2022/05/10 05:18:20;;;;;;;4.03;2.50;;;12.30;48.20;;;;;;4976384;28;20212;-71
2022/05/10 05:20:49;;;;;;;4.57;2.27;;;12.30;48.60;;;;;;4976431;28;20304;-73
2022/05/10 05:23:19;;;;;;;3.53;2.07;;;12.30;48.10;;;;;;4977819;28;20268;-71
2022/05/10 05:25:46;;;;;;;3.60;2.50;;;12.20;48.30;;;;;;4977695;28;20611;-71
2022/05/10 05:28:14;;;;;;;5.00;2.80;;;12.20;48.40;;;;;;4975687;28;20272;-73
2022/05/10 05:30:43;;;;;;;4.63;2.40;;;12.20;48.50;;;;;;4977187;28;20716;-73
2022/05/10 05:33:10;;;;;;;4.80;2.40;;;12.20;48.60;;;;;;4975164;28;20212;-73
2022/05/10 05:35:37;;;;;;;4.97;2.53;;;12.20;48.70;;;;;;4977783;28;20299;-74
2022/05/10 05:38:06;;;;;;;4.00;2.63;;;12.20;48.80;;;;;;4992000;28;20235;-71
2022/05/10 05:40:34;;;;;;;5.30;2.57;;;12.30;49.00;;;;;;4977366;28;20252;-71
2022/05/10 05:43:01;;;;;;;4.17;2.87;;;12.30;49.20;;;;;;4978114;28;20566;-71
2022/05/10 05:45:28;;;;;;;5.30;2.50;;;12.40;49.30;;;;;;4975180;28;20228;-70
2022/05/10 05:47:55;;;;;;;3.03;2.07;;;12.40;48.90;;;;;;4974870;28;20205;-70
2022/05/10 05:50:24;;;;;;;3.93;2.17;;;12.50;48.60;;;;;;4976465;28;20227;-70
2022/05/10 05:52:52;;;;;;;6.83;2.27;;;12.50;48.60;;;;;;4980209;28;20208;-71
2022/05/10 05:55:21;;;;;;;5.33;2.40;;;12.60;49.00;;;;;;4971255;28;20241;-70
2022/05/10 05:57:48;;;;;;;3.87;2.30;;;12.60;49.10;;;;;;4976231;28;20268;-71
2022/05/10 06:00:18;;;;;;;7.40;2.53;;;12.70;49.30;;;;;;4973017;28;20272;-73
2022/05/10 06:02:46;;;;;;;4.47;2.33;;;12.80;49.50;;;;;;4971958;28;20200;-73
2022/05/10 06:05:12;;;;;;;7.03;2.47;;;12.90;49.50;;;;;;4972417;28;20212;-71
2022/05/10 06:07:40;;;;;;;3.03;2.47;;;12.90;49.50;;;;;;4977067;28;20263;-71
2022/05/10 06:10:09;;;;;;;6.30;2.60;;;13.10;49.60;;;;;;4969855;28;20215;-71
2022/05/10 06:12:39;;;;;;;4.53;2.00;;;13.20;49.60;;;;;;4960662;28;20212;-70
2022/05/10 06:15:10;;;;;;;3.43;1.70;;;13.30;49.20;;;;;;4962490;28;20241;-71
2022/05/10 06:17:38;;;;;;;3.00;1.53;;;13.40;48.80;;;;;;4976094;28;20212;-72
2022/05/10 06:20:08;;;;;;;8.23;2.63;;;13.50;48.30;;;;;;4982128;28;20205;-71
2022/05/10 06:22:35;;;;;;;5.73;1.63;;;13.50;47.80;;;;;;4981058;28;20300;-71
2022/05/10 06:25:03;;;;;;;7.37;1.93;;;13.10;47.50;;;;;;4977785;28;20255;-71
2022/05/10 06:27:30;;;;;;;5.73;1.83;;;13.60;47.60;;;;;;4978849;28;20602;-71
2022/05/10 06:29:58;;;;;;;3.07;1.90;;;13.60;47.50;;;;;;4981113;28;20788;-73
2022/05/10 06:32:27;;;;;;;5.43;1.83;;;13.70;47.70;;;;;;4984386;28;20300;-71
2022/05/10 06:34:58;;;;;;;3.30;1.80;;;13.70;47.60;;;;;;4984071;28;20547;-71
2022/05/10 06:40:13;;;;;;;4.93;2.07;;;13.90;47.90;;;;;;4982259;28;20248;-73
2022/05/10 06:42:40;;;;;;;2.10;1.73;;;14.00;48.00;;;;;;4981419;28;20228;-72
2022/05/10 06:45:13;;;;;;;3.83;1.80;;;14.00;47.80;;;;;;4978962;28;20263;-72
2022/05/10 06:47:42;;;;;;;3.80;1.63;;;14.10;47.90;;;;;;4980914;28;20240;-71
2022/05/10 06:50:12;;;;;;;11.27;2.00;;;14.30;48.10;;;;;;4978937;28;20247;-73
2022/05/10 06:52:40;;;;;;;4.27;2.10;;;14.30;47.60;;;;;;4989503;28;20208;-73
2022/05/10 06:55:09;;;;;;;7.23;1.80;;;14.40;47.30;;;;;;4979680;28;20274;-72
2022/05/10 06:57:36;;;;;;;7.30;2.07;;;14.50;47.30;;;;;;4986007;28;20664;-72
2022/05/10 07:00:04;;;;;;;3.03;1.63;;;14.50;47.00;;;;;;4977770;28;20213;-71
2022/05/10 07:02:33;;;;;;;4.17;1.80;;;14.60;47.10;;;;;;4979995;28;20259;-71
2022/05/10 07:05:00;;;;;;;2.57;2.10;;;14.70;47.00;;;;;;4975379;28;20209;-71
2022/05/10 07:07:27;;;;;;;3.63;2.07;;;14.80;47.00;;;;;;4977136;28;20208;-73
2022/05/10 07:09:54;;;;;;;4.77;2.03;;;14.90;46.90;;;;;;4973502;28;20239;-70
2022/05/10 07:12:21;;;;;;;6.50;2.23;;;15.00;46.90;;;;;;4974799;28;20298;-71
2022/05/10 07:14:48;;;;;;;5.07;1.93;;;15.10;46.50;;;;;;4975027;28;20240;-70
2022/05/10 07:17:15;;;;;;;4.00;1.80;;;15.20;46.10;;;;;;4983520;28;21001;-71
2022/05/10 07:19:44;;;;;;;3.70;1.90;;;15.30;45.90;;;;;;4975648;28;20319;-71
2022/05/10 07:22:11;;;;;;;3.13;1.83;;;15.70;45.90;;;;;;4967222;28;20285;-73
2022/05/10 07:24:38;;;;;;;5.93;1.57;;;15.60;44.70;;;;;;4977772;28;20255;-71
2022/05/10 07:27:05;;;;;;;4.47;1.83;;;15.60;44.20;;;;;;4975909;28;20201;-71
2022/05/10 07:29:33;;;;;;;2.90;1.60;;;15.80;44.30;;;;;;4973962;28;20263;-71
2022/05/10 07:31:59;;;;;;;5.37;1.67;;;15.90;44.40;;;;;;4978592;28;20200;-71
2022/05/10 07:34:26;;;;;;;2.23;1.77;;;16.10;44.80;;;;;;4978264;28;20287;-70
2022/05/10 07:36:55;;;;;;;3.07;1.80;;;16.20;43.90;;;;;;4976164;28;20244;-71
2022/05/10 07:39:23;;;;;;;2.65;1.77;;;16.40;44.20;;;;;;4979736;28;20209;-72
2022/05/10 07:41:51;;;;;;;3.80;2.15;;;16.50;43.10;;;;;;4978942;28;20231;-71
2022/05/10 07:44:18;;;;;;;2.13;1.43;;;16.60;43.10;;;;;;4975916;28;20213;-72
2022/05/10 07:46:45;;;;;;;4.83;1.83;;;16.70;42.50;;;;;;4975231;28;20528;-72
2022/05/10 07:49:12;;;;;;;2.10;1.77;;;16.90;42.50;;;;;;4978552;28;20243;-73
2022/05/10 07:51:39;;;;;;;12.45;2.20;;;16.90;42.40;;;;;;4976704;28;20205;-73
2022/05/10 07:54:08;;;;;;;3.67;2.00;;;17.10;42.40;;;;;;4977726;28;20212;-73
2022/05/10 07:56:34;;;;;;;4.80;2.10;;;17.10;42.20;;;;;;4973255;28;20284;-74
2022/05/10 07:59:01;;;;;;;5.45;2.28;;;17.20;42.20;;;;;;4977957;28;20236;-73
2022/05/10 08:01:28;;;;;;;5.18;1.80;;;17.30;42.20;;;;;;4978527;28;20246;-73
2022/05/10 08:03:55;;;;;;;3.88;1.77;;;17.40;42.00;;;;;;4991360;28;20208;-74
2022/05/10 08:06:23;;;;;;;4.05;1.90;;;17.50;41.40;;;;;;4977288;28;20272;-74
2022/05/10 08:08:49;;;;;;;4.90;1.90;;;17.60;41.20;;;;;;4981274;28;20266;-71
2022/05/10 08:11:18;;;;;;;4.53;2.65;;;17.80;41.10;;;;;;4978189;28;20205;-73
2022/05/10 08:13:45;;;;;;;4.97;2.03;;;17.80;40.70;;;;;;4976919;28;20612;-74
2022/05/10 08:16:12;;;;;;;2.38;1.40;;;17.80;40.60;;;;;;4977196;28;20247;-73
2022/05/10 08:18:41;;;;;;;2.85;2.00;;;18.00;40.50;;;;;;4979035;28;20568;-73
2022/05/10 08:21:09;;;;;;;3.42;1.70;;;18.10;40.10;;;;;;4976949;28;20267;-72
2022/05/10 08:23:37;;;;;;;1.50;1.35;;;18.20;40.00;;;;;;4974584;28;20209;-70
2022/05/10 08:26:06;;;;;;;2.25;1.50;;;18.40;39.60;;;;;;4975825;28;20576;-70
2022/05/10 08:28:36;;;;;;;1.55;1.40;;;18.50;38.70;;;;;;4976245;28;20422;-70
2022/05/10 08:31:04;;;;;;;4.45;1.65;;;18.50;38.40;;;;;;4978037;28;20299;-70
2022/05/10 08:33:34;;;;;;;3.25;1.70;;;18.70;38.90;;;;;;4976528;28;20617;-71
2022/05/10 08:36:02;;;;;;;3.42;2.22;;;18.80;38.60;;;;;;4971860;28;20666;-71
2022/05/10 08:38:30;;;;;;;3.42;2.38;;;19.00;38.70;;;;;;4974921;28;20215;-70
2022/05/10 08:41:02;;;;;;;2.83;1.70;;;19.10;38.50;;;;;;4974487;28;20315;-71
2022/05/10 08:43:33;;;;;;;6.40;1.83;;;19.30;38.60;;;;;;4972886;28;20239;-70
2022/05/10 08:46:03;;;;;;;2.65;1.60;;;19.40;38.30;;;;;;4984443;28;20214;-71
2022/05/10 08:48:32;;;;;;;2.83;2.13;;;19.50;37.50;;;;;;4982221;28;20272;-71
2022/05/10 08:50:59;;;;;;;3.30;1.70;;;19.60;37.30;;;;;;4977780;28;20312;-72
2022/05/10 08:53:27;;;;;;;1.95;1.58;;;19.60;37.10;;;;;;4973931;28;20295;-72
2022/05/10 08:55:58;;;;;;;5.70;1.88;;;19.60;37.20;;;;;;4975904;28;20567;-71
2022/05/10 08:58:47;;;;;;;2.72;2.08;;;19.80;37.50;;;;;;4975767;28;20206;-72
2022/05/10 09:01:20;;;;;;;5.75;2.42;;;19.90;37.10;;;;;;4967862;28;20304;-71
2022/05/10 09:03:54;;;;;;;4.57;2.00;;;20.00;37.00;;;;;;4976382;28;20204;-70
2022/05/10 09:06:29;;;;;;;5.38;2.03;;;20.10;37.00;;;;;;4981229;28;20196;-70
2022/05/10 09:09:08;;;;;;;4.43;1.63;;;20.20;37.90;;;;;;4974787;28;20298;-71
2022/05/10 09:11:46;;;;;;;2.10;1.80;;;20.40;37.20;;;;;;4975561;28;20290;-70
2022/05/10 09:14:14;;;;;;;2.78;2.00;;;20.40;36.40;;;;;;4970490;28;20208;-71
2022/05/10 09:16:42;;;;;;;3.53;2.72;;;20.60;36.20;;;;;;4975434;28;20205;-71
2022/05/10 09:19:12;;;;;;;4.10;2.35;;;20.60;36.20;;;;;;4967919;28;20231;-71
2022/05/10 09:21:47;;;;;;;4.63;2.03;;;20.70;36.40;;;;;;4965763;28;20209;-70
2022/05/10 09:24:28;;;;;;;2.83;1.90;;;20.80;36.50;;;;;;4965220;28;20230;-72
2022/05/10 09:27:01;;;;;;;3.42;2.13;;;20.90;36.50;;;;;;4965715;28;20205;-71
2022/05/10 09:29:33;;;;;;;3.22;1.90;;;21.10;36.50;;;;;;4964914;28;20228;-72
2022/05/10 09:35:02;;;;;;;3.25;2.03;;;21.60;36.30;;;;;;4961563;28;20209;-71
2022/05/10 09:37:32;;;;;;;12.40;2.58;;;21.70;36.50;;;;;;4970781;28;20247;-71
2022/05/10 09:40:20;;;;;;;3.30;2.00;;;22.10;36.30;;;;;;4972706;28;20228;-71
2022/05/10 09:42:49;;;;;;;4.75;1.90;;;22.20;35.50;;;;;;4973027;28;20217;-73
2022/05/10 09:45:20;;;;;;;3.20;1.83;;;22.40;34.70;;;;;;4961618;28;20209;-71
2022/05/10 09:47:59;;;;;;;5.28;2.00;;;22.60;34.70;;;;;;4968652;28;20204;-74
2022/05/10 09:50:32;;;;;;;1.80;1.70;;;22.80;34.50;;;;;;4969965;28;20205;-72
2022/05/10 09:53:14;;;;;;;8.93;2.33;;;22.90;34.50;;;;;;4965647;28;20204;-71
2022/05/10 09:55:52;;;;;;;2.40;1.92;;;23.00;33.90;;;;;;4974285;28;20208;-71
2022/05/10 09:58:21;;;;;;;5.20;1.90;;;23.10;34.10;;;;;;4979136;28;20247;-71
2022/05/10 10:00:52;;;;;;;3.33;1.80;;;23.20;33.90;;;;;;4980354;28;20276;-72
2022/05/10 10:03:29;;;;;;;3.38;1.70;;;23.20;33.70;;;;;;4979819;28;20821;-72
2022/05/10 10:06:13;;;;;;;4.03;1.65;;;23.30;33.20;;;;;;4975093;28;20208;-71
2022/05/10 10:08:43;;;;;;;4.63;1.58;;;23.30;33.00;;;;;;4973697;28;20204;-71
2022/05/10 10:11:24;;;;;;;4.65;1.80;;;23.20;32.80;;;;;;4979348;28;20209;-75
2022/05/10 10:13:53;;;;;;;2.03;1.50;;;23.10;33.40;;;;;;4975070;28;20200;-76
2022/05/10 10:16:24;;;;;;;3.72;1.42;;;23.00;32.80;;;;;;4975477;28;20295;-73
2022/05/10 10:18:56;;;;;;;2.00;1.40;;;23.10;32.40;;;;;;4979909;28;20243;-73
2022/05/10 10:21:28;;;;;;;2.92;1.60;;;23.10;31.60;;;;;;4981426;28;20225;-73
2022/05/10 10:23:58;;;;;;;4.35;1.80;;;23.00;31.50;;;;;;4978043;28;20752;-73
2022/05/10 10:26:32;;;;;;;4.28;1.65;;;22.90;31.90;;;;;;4975081;28;20586;-73
2022/05/10 10:29:16;;;;;;;4.95;1.85;;;22.80;32.30;;;;;;4975126;28;20751;-71
2022/05/10 10:31:48;;;;;;;3.22;1.50;;;22.90;32.50;;;;;;4975035;28;20230;-70
2022/05/10 10:34:21;;;;;;;3.53;2.00;;;22.90;32.70;;;;;;4976963;28;20205;-71
2022/05/10 10:36:53;;;;;;;6.13;2.63;;;23.10;33.30;;;;;;4981209;28;20250;-75
2022/05/10 10:39:29;;;;;;;2.85;1.50;;;23.30;32.80;;;;;;4971210;28;20228;-72
2022/05/10 10:42:01;;;;;;;2.03;1.60;;;23.90;31.90;;;;;;4978426;28;20315;-73
2022/05/10 10:44:30;;;;;;;5.03;2.03;;;23.90;32.30;;;;;;4979014;28;20232;-72
2022/05/10 10:47:07;;;;;;;4.20;1.90;;;24.10;31.80;;;;;;4974110;28;20245;-74
2022/05/10 10:49:41;;;;;;;5.95;1.73;;;24.20;31.70;;;;;;4971260;28;20226;-73
2022/05/10 10:52:08;;;;;;;3.60;1.67;;;24.10;31.70;;;;;;4979452;28;20221;-71
2022/05/10 10:54:36;;;;;;;4.97;1.50;;;24.30;31.70;;;;;;4978668;28;20208;-72
2022/05/10 10:57:31;;;;;;;4.53;2.13;;;24.30;31.00;;;;;;4980045;28;20305;-73
2022/05/10 11:00:11;;;;;;;5.75;2.05;;;24.30;31.00;;;;;;4980358;28;20266;-72
2022/05/10 11:03:09;;;;;;;8.30;2.40;;;24.20;30.90;;;;;;4976332;28;20216;-72
2022/05/10 11:06:02;;;;;;;2.83;1.90;;;24.30;31.50;;;;;;4975025;28;20239;-72
2022/05/10 11:08:52;;;;;;;4.13;1.77;;;24.00;30.80;;;;;;4978657;28;20236;-70
2022/05/10 11:11:36;;;;;;;2.38;1.40;;;23.70;31.20;;;;;;4974387;28;20673;-73
2022/05/10 11:14:14;;;;;;;5.97;1.70;;;23.60;31.40;;;;;;4977110;28;20220;-69
2022/05/10 11:16:50;;;;;;;3.75;1.70;;;23.60;31.30;;;;;;4981721;28;20220;-70
2022/05/10 11:19:45;;;;;;;4.35;2.35;;;23.60;31.70;;;;;;4974249;28;20291;-69
2022/05/10 11:22:30;;;;;;;3.10;1.60;;;23.50;31.90;;;;;;4974199;28;20260;-71
2022/05/10 11:25:06;;;;;;;4.50;1.65;;;23.40;31.70;;;;;;4978943;28;20212;-72
2022/05/10 11:27:46;;;;;;;2.92;1.67;;;23.30;31.10;;;;;;4978269;28;20629;-72
2022/05/10 11:30:20;;;;;;;3.17;2.08;;;23.30;31.60;;;;;;4976576;28;20248;-71
2022/05/10 11:33:00;;;;;;;3.03;1.33;;;23.50;32.40;;;;;;4975303;28;20205;-73
2022/05/10 11:35:56;;;;;;;2.28;1.42;;;23.60;31.90;;;;;;4977075;28;20208;-74
2022/05/10 11:38:43;;;;;;;5.55;1.75;;;23.60;32.00;;;;;;4972251;28;20279;-72
2022/05/10 11:41:23;;;;;;;4.43;1.92;;;23.70;31.70;;;;;;4970673;28;20296;-73
2022/05/10 11:44:21;;;;;;;2.45;1.48;;;23.90;31.70;;;;;;4977425;28;20275;-72
2022/05/10 11:47:20;;;;;;;3.20;1.90;;;24.00;31.50;;;;;;4965231;28;20212;-73
2022/05/10 11:50:18;;;;;;;4.05;1.65;;;24.00;31.60;;;;;;4968925;28;20213;-74
2022/05/10 11:53:12;;;;;;;4.30;1.70;;;24.20;31.90;;;;;;4972780;28;20201;-74
2022/05/10 11:55:50;;;;;;;2.55;1.75;;;24.20;31.30;;;;;;4971515;28;20212;-74
2022/05/10 11:58:18;;;;;;;2.47;1.70;;;24.30;31.00;;;;;;4971120;28;20243;-74
2022/05/10 12:00:51;;;;;;;1.40;1.25;;;24.20;30.00;;;;;;4977509;28;20287;-74
2022/05/10 12:03:55;;;;;;;5.38;1.70;;;24.20;29.80;;;;;;4973214;28;20287;-74
2022/05/10 12:06:38;;;;;;;3.78;1.50;;;24.30;29.60;;;;;;4973200;28;20270;-74
2022/05/10 12:09:07;;;;;;;3.33;1.60;;;24.40;29.50;;;;;;4972302;28;20208;-74
2022/05/10 12:11:41;;;;;;;3.17;1.50;;;24.20;29.50;;;;;;4966706;28;20209;-74
2022/05/10 12:22:59;;;;;;;1.73;1.30;;;23.80;29.90;;;;;;4975156;28;20267;-75
2022/05/10 12:25:59;;;;;;;1.92;1.73;;;23.80;30.00;;;;;;4968086;28;20202;-75
2022/05/10 12:28:47;;;;;;;1.55;1.30;;;23.80;30.00;;;;;;4970843;28;20279;-73
2022/05/10 12:31:50;;;;;;;4.60;1.60;;;23.90;30.10;;;;;;4980422;28;20216;-73
2022/05/10 12:34:39;;;;;;;1.73;1.42;;;24.00;30.00;;;;;;4975689;28;20688;-74
2022/05/10 12:37:49;;;;;;;4.57;1.63;;;24.00;30.00;;;;;;4973516;28;20215;-74
2022/05/10 12:40:31;;;;;;;2.22;1.70;;;23.90;30.00;;;;;;4972752;28;20216;-74
2022/05/10 12:43:35;;;;;;;2.33;1.45;;;23.90;30.80;;;;;;4973299;28;20231;-73
2022/05/10 12:46:17;;;;;;;1.60;1.50;;;23.90;30.20;;;;;;4934358;29;20650;-74
2022/05/10 12:48:58;;;;;;;2.63;1.40;;;23.90;30.30;;;;;;4973968;28;20224;-74
2022/05/10 12:51:34;;;;;;;2.03;1.67;;;24.10;30.50;;;;;;4977676;28;20242;-74
2022/05/10 12:54:09;;;;;;;1.98;1.30;;;24.20;30.10;;;;;;4977409;28;20224;-73
2022/05/10 12:57:02;;;;;;;2.65;1.25;;;24.30;30.00;;;;;;4972089;28;20260;-73
2022/05/10 12:59:36;;;;;;;3.70;1.35;;;24.50;30.10;;;;;;4973403;28;20212;-71
2022/05/10 13:02:13;;;;;;;3.08;1.48;;;24.80;30.00;;;;;;4972214;28;20263;-73
2022/05/10 13:04:44;;;;;;;2.72;1.85;;;24.80;30.00;;;;;;4978218;28;20239;-74
2022/05/10 13:07:19;;;;;;;1.50;1.33;;;24.80;29.90;;;;;;4977813;28;20267;-75
2022/05/10 13:09:49;;;;;;;2.40;1.23;;;24.70;29.70;;;;;;4976009;28;20211;-72
2022/05/10 13:12:20;;;;;;;2.95;1.60;;;24.50;29.50;;;;;;4978748;28;20234;-73
2022/05/10 13:14:52;;;;;;;3.08;1.60;;;24.30;29.80;;;;;;4977373;28;20296;-70
2022/05/10 13:17:24;;;;;;;4.00;2.00;;;24.30;30.70;;;;;;4975233;28;20334;-72
2022/05/10 13:19:51;;;;;;;2.17;1.60;;;24.40;30.10;;;;;;4974634;28;20362;-71
2022/05/10 13:22:20;;;;;;;4.35;2.80;;;24.50;30.10;;;;;;4973304;28;20224;-70
2022/05/10 13:24:49;;;;;;;7.60;3.88;;;24.60;30.00;;;;;;4977459;28;20283;-69
2022/05/10 13:27:27;;;;;;;2.55;2.10;;;24.60;29.70;;;;;;4976343;28;20283;-74